Time;durP1;ratioP1;P1;durP2;ratioP2;P2;SDS_P1;SDS_P2;PMS_P1;PMS_P2;Temp;Humidity;BMP_temperature;BMP_pressure;BME280_temperature;BME280_humidity;BME280_pressure;Samples;Min_cycle;Max_cycle;Signal;HPM_P1;HPM_P2
2023/01/29 00:01:11;;;;;;;27.45;15.35;;;;;;;;;;5039338;28;20033;-74
2023/01/29 00:03:37;;;;;;;28.70;15.23;;;;;;;;;;5036630;28;20044;-73
2023/01/29 00:06:06;;;;;;;29.35;13.75;;;;;;;;;;5031043;28;20029;-75
2023/01/29 00:08:35;;;;;;;26.42;13.65;;;;;;;;;;5031712;28;20090;-74
2023/01/29 00:11:01;;;;;;;24.77;12.75;;;;;;;;;;5014573;28;20029;-75
2023/01/29 00:13:27;;;;;;;24.65;12.13;;;;;;;;;;5030728;28;20197;-74
2023/01/29 00:15:56;;;;;;;23.35;12.48;;;;;;;;;;5031070;28;20644;-74
2023/01/29 00:18:21;;;;;;;25.05;12.27;;;;;;;;;;5022047;28;20142;-74
2023/01/29 00:20:46;;;;;;;25.55;11.93;;;;;;;;;;5029875;28;20160;-74
2023/01/29 00:23:12;;;;;;;23.23;11.85;;;;;;;;;;5004728;28;20137;-74
2023/01/29 00:25:38;;;;;;;22.88;12.02;;;;;;;;;;5032994;28;20501;-74
2023/01/29 00:28:03;;;;;;;;;;;;;;;;;;5032541;28;20037;-74
2023/01/29 00:30:29;;;;;;;21.52;11.32;;;;;;;;;;5030856;28;19916;-76
2023/01/29 00:32:54;;;;;;;23.48;12.43;;;;;;;;;;5031644;28;20030;-74
2023/01/29 00:35:20;;;;;;;20.90;11.40;;;;;;;;;;5030044;28;20120;-75
2023/01/29 00:37:45;;;;;;;21.83;11.80;;;;;;;;;;5029552;28;20163;-74
2023/01/29 00:40:11;;;;;;;22.13;11.90;;;;;;;;;;5013840;28;20033;-74
2023/01/29 00:45:20;;;;;;;22.27;11.13;;;;;;;;;;5030506;28;20029;-75
2023/01/29 00:47:46;;;;;;;23.45;11.48;;;;;;;;;;5030218;28;20488;-74
2023/01/29 00:50:11;;;;;;;22.73;12.07;;;;;;;;;;5024579;28;20528;-75
2023/01/29 00:52:37;;;;;;;25.00;12.10;;;;;;;;;;5022771;28;20056;-75
2023/01/29 00:55:03;;;;;;;23.58;11.48;;;;;;;;;;5032012;28;20128;-74
2023/01/29 00:57:29;;;;;;;20.88;11.50;;;;;;;;;;5013563;28;20159;-74
2023/01/29 00:59:54;;;;;;;;;;;;;;;;;;5021110;28;20033;-73
2023/01/29 01:05:12;;;;;;;22.23;11.65;;;;;;;;;;5033440;28;20033;-74
2023/01/29 01:07:38;;;;;;;22.13;11.32;;;;;;;;;;5029993;28;20053;-74
2023/01/29 01:10:23;;;;;;;24.67;12.02;;;;;;;;;;5037204;28;20025;-74
2023/01/29 01:12:49;;;;;;;20.60;11.77;;;;;;;;;;5017897;28;20082;-74
2023/01/29 01:15:15;;;;;;;20.90;10.68;;;;;;;;;;5029770;28;20478;-75
2023/01/29 01:17:41;;;;;;;24.55;11.90;;;;;;;;;;5029280;28;20148;-75
2023/01/29 01:20:07;;;;;;;21.35;11.60;;;;;;;;;;5029543;28;20037;-73
2023/01/29 01:22:33;;;;;;;;;;;;;;;;;;5031229;28;20037;-73
2023/01/29 01:24:58;;;;;;;22.38;11.20;;;;;;;;;;5029793;28;19909;-74
2023/01/29 01:27:24;;;;;;;23.08;12.60;;;;;;;;;;5012641;28;20041;-73
2023/01/29 01:29:50;;;;;;;20.35;10.88;;;;;;;;;;5030929;28;20033;-72
2023/01/29 01:32:15;;;;;;;21.60;11.65;;;;;;;;;;5029053;28;20099;-73
2023/01/29 01:34:44;;;;;;;20.60;10.77;;;;;;;;;;5028626;28;20033;-73
2023/01/29 01:37:11;;;;;;;19.73;11.20;;;;;;;;;;5017909;28;20040;-74
2023/01/29 01:39:37;;;;;;;22.13;11.40;;;;;;;;;;5030323;28;20029;-73
2023/01/29 01:42:02;;;;;;;21.52;10.88;;;;;;;;;;5030483;28;20065;-73
2023/01/29 01:44:46;;;;;;;21.55;10.55;;;;;;;;;;5030292;28;20412;-74
2023/01/29 01:47:12;;;;;;;19.67;10.88;;;;;;;;;;5036075;28;20033;-76
2023/01/29 01:49:39;;;;;;;;;;;;;;;;;;5041216;28;20021;-74
2023/01/29 01:52:05;;;;;;;22.83;10.88;;;;;;;;;;5029334;28;19919;-75
2023/01/29 01:54:30;;;;;;;19.65;10.65;;;;;;;;;;5012416;28;20132;-75
2023/01/29 01:57:17;;;;;;;21.60;10.88;;;;;;;;;;5029268;28;20128;-75
2023/01/29 01:59:47;;;;;;;19.23;9.57;;;;;;;;;;5029038;28;20500;-74
2023/01/29 02:10:29;;;;;;;19.30;10.13;;;;;;;;;;5020979;28;20127;-74
2023/01/29 02:12:55;;;;;;;20.88;10.73;;;;;;;;;;5029244;28;20025;-73
2023/01/29 02:15:20;;;;;;;23.25;11.52;;;;;;;;;;5028728;28;20046;-75
2023/01/29 02:17:47;;;;;;;19.40;10.55;;;;;;;;;;5030115;28;20067;-75
2023/01/29 02:20:28;;;;;;;21.25;11.25;;;;;;;;;;5030224;28;20088;-75
2023/01/29 02:22:58;;;;;;;20.50;10.57;;;;;;;;;;5028570;28;20025;-74
2023/01/29 02:25:32;;;;;;;20.73;10.80;;;;;;;;;;5045330;28;20018;-75
2023/01/29 02:28:06;;;;;;;20.48;10.55;;;;;;;;;;5045615;28;20128;-74
2023/01/29 02:30:50;;;;;;;20.73;10.70;;;;;;;;;;5028654;28;20037;-75
2023/01/29 02:33:28;;;;;;;19.23;10.48;;;;;;;;;;5039077;28;20408;-74
2023/01/29 02:36:15;;;;;;;19.42;10.70;;;;;;;;;;5018654;28;20035;-74
2023/01/29 02:38:40;;;;;;;19.75;10.80;;;;;;;;;;5028663;28;20233;-75
2023/01/29 02:41:12;;;;;;;18.77;11.00;;;;;;;;;;5035832;28;20072;-75
2023/01/29 02:43:52;;;;;;;21.95;11.10;;;;;;;;;;5028489;28;20029;-75
2023/01/29 02:46:21;;;;;;;20.13;10.50;;;;;;;;;;5010114;28;20049;-74
2023/01/29 02:48:55;;;;;;;19.23;10.40;;;;;;;;;;4997956;28;20051;-73
2023/01/29 02:51:25;;;;;;;20.23;11.32;;;;;;;;;;5028551;28;20033;-74
2023/01/29 02:53:55;;;;;;;21.23;10.18;;;;;;;;;;5018063;28;20048;-73
2023/01/29 02:56:21;;;;;;;19.40;10.32;;;;;;;;;;5028342;28;20045;-74
2023/01/29 02:58:48;;;;;;;19.92;10.57;;;;;;;;;;5012123;28;20028;-74
2023/01/29 03:01:17;;;;;;;21.23;10.50;;;;;;;;;;5014673;28;20094;-74
2023/01/29 03:03:44;;;;;;;20.73;10.10;;;;;;;;;;5015238;28;20091;-74
2023/01/29 03:06:19;;;;;;;21.17;11.00;;;;;;;;;;5033525;28;20049;-74
2023/01/29 03:09:05;;;;;;;21.70;11.05;;;;;;;;;;5027831;28;20045;-74
2023/01/29 03:11:33;;;;;;;20.20;10.75;;;;;;;;;;5032642;28;20431;-74
2023/01/29 03:14:00;;;;;;;19.40;10.73;;;;;;;;;;5031977;28;20038;-75
2023/01/29 03:16:33;;;;;;;21.23;11.52;;;;;;;;;;4995885;28;20049;-74
2023/01/29 03:19:06;;;;;;;21.83;10.95;;;;;;;;;;5041883;28;20033;-74
2023/01/29 03:21:58;;;;;;;19.40;10.50;;;;;;;;;;5032300;28;20037;-75
2023/01/29 03:33:22;;;;;;;22.60;11.50;;;;;;;;;;5020303;28;20095;-74
2023/01/29 03:35:59;;;;;;;22.77;11.68;;;;;;;;;;5014903;28;20029;-74
2023/01/29 03:38:28;;;;;;;21.90;10.95;;;;;;;;;;5031463;28;20027;-74
2023/01/29 03:40:56;;;;;;;24.40;12.43;;;;;;;;;;5024851;28;20022;-74
2023/01/29 03:43:31;;;;;;;23.55;11.40;;;;;;;;;;5027378;28;20037;-74
2023/01/29 03:45:57;;;;;;;24.52;12.50;;;;;;;;;;5024665;28;20030;-75
2023/01/29 03:48:23;;;;;;;21.70;11.23;;;;;;;;;;5047005;28;20031;-74
2023/01/29 03:50:53;;;;;;;22.65;11.40;;;;;;;;;;5038386;28;20037;-74
2023/01/29 03:53:34;;;;;;;22.08;11.77;;;;;;;;;;5030525;28;20064;-74
2023/01/29 03:56:05;;;;;;;22.77;12.18;;;;;;;;;;5047419;28;20087;-74
2023/01/29 03:58:35;;;;;;;22.98;11.82;;;;;;;;;;5045423;28;20124;-75
2023/01/29 04:01:15;;;;;;;24.35;12.15;;;;;;;;;;5027982;28;20080;-74
2023/01/29 04:04:01;;;;;;;22.92;12.07;;;;;;;;;;5014609;28;20037;-76
2023/01/29 04:06:28;;;;;;;22.33;11.77;;;;;;;;;;5046482;28;20049;-75
2023/01/29 04:09:11;;;;;;;20.48;11.52;;;;;;;;;;5034215;28;20117;-75
2023/01/29 04:11:41;;;;;;;25.58;12.60;;;;;;;;;;5013883;28;20041;-75
2023/01/29 04:14:07;;;;;;;21.80;11.95;;;;;;;;;;5013355;28;20459;-74
2023/01/29 04:16:36;;;;;;;21.02;11.48;;;;;;;;;;5031402;28;20148;-74
2023/01/29 04:19:14;;;;;;;23.15;11.73;;;;;;;;;;5024303;28;20415;-74
2023/01/29 04:21:41;;;;;;;21.63;12.05;;;;;;;;;;5030788;28;20061;-73
2023/01/29 04:24:07;;;;;;;23.10;12.38;;;;;;;;;;5028684;28;20045;-75
2023/01/29 04:26:38;;;;;;;24.05;12.93;;;;;;;;;;5030639;28;20132;-74
2023/01/29 04:29:21;;;;;;;25.35;11.88;;;;;;;;;;5025181;28;20435;-74
2023/01/29 04:32:09;;;;;;;19.50;11.15;;;;;;;;;;5022717;28;20033;-75
2023/01/29 04:34:40;;;;;;;24.85;12.63;;;;;;;;;;5046656;28;20040;-75
2023/01/29 04:37:25;;;;;;;25.17;12.32;;;;;;;;;;5018414;28;20037;-73
2023/01/29 04:39:55;;;;;;;24.23;11.77;;;;;;;;;;5018966;28;20029;-75
2023/01/29 04:42:24;;;;;;;23.10;11.27;;;;;;;;;;5031511;28;20034;-73
2023/01/29 04:45:00;;;;;;;21.38;11.45;;;;;;;;;;5030601;28;20136;-74
2023/01/29 04:47:29;;;;;;;20.50;10.85;;;;;;;;;;5017324;28;20041;-74
2023/01/29 04:50:13;;;;;;;22.15;11.63;;;;;;;;;;5031578;28;20083;-74
2023/01/29 04:52:57;;;;;;;18.25;10.00;;;;;;;;;;5031194;28;20108;-74
2023/01/29 04:55:23;;;;;;;21.42;11.27;;;;;;;;;;5030869;28;20473;-74
2023/01/29 04:57:53;;;;;;;17.20;10.00;;;;;;;;;;5030085;28;20112;-74
2023/01/29 05:00:19;;;;;;;17.20;9.77;;;;;;;;;;5023975;28;20029;-74
2023/01/29 05:02:45;;;;;;;19.23;10.27;;;;;;;;;;5029886;28;20022;-75
2023/01/29 05:05:10;;;;;;;19.83;10.88;;;;;;;;;;5030045;28;20540;-76
2023/01/29 05:07:36;;;;;;;19.77;10.32;;;;;;;;;;5013079;28;20029;-75
2023/01/29 05:10:03;;;;;;;20.40;10.73;;;;;;;;;;5030169;28;20077;-74
2023/01/29 05:12:28;;;;;;;19.73;11.00;;;;;;;;;;5031399;28;20095;-75
2023/01/29 05:14:54;;;;;;;18.27;9.90;;;;;;;;;;5013432;28;20072;-73
2023/01/29 05:17:19;;;;;;;17.17;9.43;;;;;;;;;;5029279;28;20132;-75
2023/01/29 05:19:44;;;;;;;14.98;8.95;;;;;;;;;;5029789;28;20030;-75
2023/01/29 05:22:10;;;;;;;15.27;9.30;;;;;;;;;;5029171;28;20041;-75
2023/01/29 05:24:36;;;;;;;21.52;10.63;;;;;;;;;;5029595;28;20035;-75
2023/01/29 05:29:45;;;;;;;17.33;9.65;;;;;;;;;;5015054;28;20069;-74
2023/01/29 05:32:11;;;;;;;15.25;9.43;;;;;;;;;;5028592;28;20088;-75
2023/01/29 05:34:36;;;;;;;16.65;9.63;;;;;;;;;;5030729;28;20033;-73
2023/01/29 05:37:02;;;;;;;17.73;9.98;;;;;;;;;;5029109;28;20034;-75
2023/01/29 05:39:27;;;;;;;17.38;9.35;;;;;;;;;;5013071;28;20486;-74
2023/01/29 05:41:53;;;;;;;17.08;9.15;;;;;;;;;;5029069;28;20021;-74
2023/01/29 05:44:19;;;;;;;16.98;9.20;;;;;;;;;;5040712;28;20053;-74
2023/01/29 05:46:44;;;;;;;18.10;9.27;;;;;;;;;;5041759;28;20028;-74
2023/01/29 05:49:10;;;;;;;17.52;9.02;;;;;;;;;;5030565;28;20120;-74
2023/01/29 05:51:35;;;;;;;16.77;8.85;;;;;;;;;;5039789;28;20037;-75
2023/01/29 05:54:03;;;;;;;16.33;9.25;;;;;;;;;;5030175;28;20046;-75
2023/01/29 05:56:29;;;;;;;18.00;10.15;;;;;;;;;;5012748;28;20033;-75
2023/01/29 05:58:54;;;;;;;16.85;9.15;;;;;;;;;;5029146;28;20025;-74
2023/01/29 06:01:21;;;;;;;15.63;8.93;;;;;;;;;;5028910;28;20395;-74
2023/01/29 06:03:46;;;;;;;17.60;8.57;;;;;;;;;;5037707;28;20041;-74
2023/01/29 06:06:12;;;;;;;17.17;9.77;;;;;;;;;;5030842;28;20034;-74
2023/01/29 06:08:37;;;;;;;16.52;8.52;;;;;;;;;;5029692;28;20045;-73
2023/01/29 06:11:03;;;;;;;13.27;8.20;;;;;;;;;;5026520;28;20348;-76
2023/01/29 06:13:29;;;;;;;12.98;7.63;;;;;;;;;;5028236;28;20061;-75
2023/01/29 06:15:54;;;;;;;16.25;8.45;;;;;;;;;;5027229;28;20049;-74
2023/01/29 06:18:20;;;;;;;14.88;8.23;;;;;;;;;;5021322;28;20171;-74
2023/01/29 06:20:45;;;;;;;14.10;8.55;;;;;;;;;;5029783;28;20404;-76
2023/01/29 06:23:11;;;;;;;16.45;8.27;;;;;;;;;;5030567;28;20033;-76
2023/01/29 06:25:36;;;;;;;15.98;8.18;;;;;;;;;;5029831;28;20018;-75
2023/01/29 06:28:01;;;;;;;14.52;8.50;;;;;;;;;;5038034;28;20076;-75
2023/01/29 06:30:27;;;;;;;14.77;8.48;;;;;;;;;;5028834;28;20705;-75
2023/01/29 06:32:57;;;;;;;16.42;8.63;;;;;;;;;;5026224;28;20042;-75
2023/01/29 06:35:23;;;;;;;16.73;8.55;;;;;;;;;;5025148;28;20087;-76
2023/01/29 06:37:48;;;;;;;14.77;8.30;;;;;;;;;;5015837;28;20476;-75
2023/01/29 06:40:14;;;;;;;14.27;8.23;;;;;;;;;;5033964;28;20396;-75
2023/01/29 06:42:39;;;;;;;13.52;7.78;;;;;;;;;;5033585;28;20029;-75
2023/01/29 06:45:05;;;;;;;13.35;8.32;;;;;;;;;;5033647;28;20025;-75
2023/01/29 06:47:30;;;;;;;16.15;8.90;;;;;;;;;;5033274;28;20033;-76
2023/01/29 06:49:56;;;;;;;14.98;7.88;;;;;;;;;;5032464;28;20043;-74
2023/01/29 06:52:21;;;;;;;14.75;8.63;;;;;;;;;;5033369;28;20471;-75
2023/01/29 06:54:47;;;;;;;11.95;6.88;;;;;;;;;;5043440;28;20037;-74
2023/01/29 06:57:12;;;;;;;15.25;8.30;;;;;;;;;;5035236;28;20515;-75
2023/01/29 06:59:38;;;;;;;12.93;7.80;;;;;;;;;;5033564;28;20053;-74
2023/01/29 07:02:03;;;;;;;15.38;8.23;;;;;;;;;;5029521;28;20401;-76
2023/01/29 07:04:29;;;;;;;15.90;8.30;;;;;;;;;;5009438;28;20036;-75
2023/01/29 07:06:54;;;;;;;14.50;8.30;;;;;;;;;;5033440;28;20033;-74
2023/01/29 07:09:19;;;;;;;14.07;8.02;;;;;;;;;;5030919;28;20025;-74
2023/01/29 07:11:46;;;;;;;17.10;9.48;;;;;;;;;;5015490;28;20051;-74
2023/01/29 07:14:12;;;;;;;14.38;7.97;;;;;;;;;;5032817;28;20037;-74
2023/01/29 07:16:37;;;;;;;16.40;7.90;;;;;;;;;;5011890;28;20119;-76
2023/01/29 07:19:03;;;;;;;14.00;7.85;;;;;;;;;;5040430;28;20077;-75
2023/01/29 07:21:28;;;;;;;14.82;8.20;;;;;;;;;;5031483;28;20040;-75
2023/01/29 07:23:54;;;;;;;15.10;7.88;;;;;;;;;;5023234;28;20025;-75
2023/01/29 07:26:19;;;;;;;12.70;7.85;;;;;;;;;;5031548;28;20128;-75
2023/01/29 07:28:45;;;;;;;15.88;8.68;;;;;;;;;;5031594;28;20155;-75
2023/01/29 07:31:11;;;;;;;14.30;8.50;;;;;;;;;;5025723;28;20079;-75
2023/01/29 07:33:36;;;;;;;15.80;7.70;;;;;;;;;;5031301;28;20021;-75
2023/01/29 07:36:05;;;;;;;16.73;8.73;;;;;;;;;;5036420;28;20044;-76
2023/01/29 07:38:31;;;;;;;17.77;9.52;;;;;;;;;;5023047;28;20048;-74
2023/01/29 07:40:56;;;;;;;16.92;9.55;;;;;;;;;;5037048;28;20033;-74
2023/01/29 07:43:23;;;;;;;16.17;9.45;;;;;;;;;;5022159;28;20524;-74
2023/01/29 07:45:49;;;;;;;18.27;9.50;;;;;;;;;;5031158;28;20484;-75
2023/01/29 07:48:14;;;;;;;17.40;9.73;;;;;;;;;;5031456;28;20032;-75
2023/01/29 07:50:40;;;;;;;18.30;10.05;;;;;;;;;;5031460;28;20049;-76
2023/01/29 07:53:05;;;;;;;18.48;9.30;;;;;;;;;;5032148;28;20029;-75
2023/01/29 07:55:31;;;;;;;19.23;9.40;;;;;;;;;;5031254;28;20037;-75
2023/01/29 07:57:57;;;;;;;17.55;10.25;;;;;;;;;;5032471;28;20068;-76
2023/01/29 08:00:22;;;;;;;19.20;9.73;;;;;;;;;;5031069;28;20079;-74
2023/01/29 08:02:48;;;;;;;16.50;9.43;;;;;;;;;;5034083;28;20414;-74
2023/01/29 08:05:13;;;;;;;16.00;8.68;;;;;;;;;;5025325;28;20034;-75
2023/01/29 08:07:39;;;;;;;15.90;8.95;;;;;;;;;;5027385;28;20496;-76
2023/01/29 08:10:04;;;;;;;18.00;9.30;;;;;;;;;;5031672;28;20041;-75
2023/01/29 08:12:30;;;;;;;15.82;9.05;;;;;;;;;;5031595;28;20080;-76
2023/01/29 08:14:55;;;;;;;19.75;10.00;;;;;;;;;;5030205;28;20046;-77
2023/01/29 08:17:20;;;;;;;16.40;9.23;;;;;;;;;;5013356;28;20046;-75
2023/01/29 08:19:46;;;;;;;18.77;9.52;;;;;;;;;;5030781;28;20029;-75
2023/01/29 08:22:14;;;;;;;17.27;9.65;;;;;;;;;;5031946;28;20057;-74
2023/01/29 08:24:39;;;;;;;18.58;9.82;;;;;;;;;;5031037;28;20037;-75
2023/01/29 08:27:05;;;;;;;17.55;9.25;;;;;;;;;;5032451;28;20239;-75
2023/01/29 08:29:30;;;;;;;17.55;9.35;;;;;;;;;;5032026;28;20087;-76
2023/01/29 08:31:56;;;;;;;19.10;9.82;;;;;;;;;;5032060;28;20563;-76
2023/01/29 08:34:21;;;;;;;18.42;10.00;;;;;;;;;;5031691;28;20087;-76
2023/01/29 08:36:47;;;;;;;20.73;11.23;;;;;;;;;;5031965;28;20142;-76
2023/01/29 08:39:12;;;;;;;20.35;10.60;;;;;;;;;;5031320;28;20039;-74
2023/01/29 08:41:38;;;;;;;19.70;10.35;;;;;;;;;;5031786;28;20033;-75
2023/01/29 08:44:03;;;;;;;20.38;10.38;;;;;;;;;;5031783;28;20040;-74
2023/01/29 08:46:29;;;;;;;19.70;11.27;;;;;;;;;;5031566;28;20033;-76
2023/01/29 08:48:55;;;;;;;23.48;11.60;;;;;;;;;;5030375;28;20035;-75
2023/01/29 08:51:20;;;;;;;21.65;11.85;;;;;;;;;;5047231;28;20423;-73
2023/01/29 08:53:46;;;;;;;19.15;10.80;;;;;;;;;;5016901;28;20029;-74
2023/01/29 08:56:11;;;;;;;33.92;19.85;;;;;;;;;;5031494;28;20133;-75
2023/01/29 08:58:37;;;;;;;33.13;18.27;;;;;;;;;;5030665;28;20112;-75
2023/01/29 09:01:06;;;;;;;23.38;13.15;;;;;;;;;;5031781;28;20061;-75
2023/01/29 09:03:32;;;;;;;24.30;11.57;;;;;;;;;;5017032;28;20037;-75
2023/01/29 09:05:57;;;;;;;21.17;11.23;;;;;;;;;;5030312;28;20018;-75
2023/01/29 09:08:23;;;;;;;21.67;11.95;;;;;;;;;;5030252;28;20029;-76
2023/01/29 09:10:48;;;;;;;21.50;13.25;;;;;;;;;;5030845;28;20039;-77
2023/01/29 09:13:14;;;;;;;24.58;14.70;;;;;;;;;;5029634;28;20071;-77
2023/01/29 09:15:39;;;;;;;25.42;15.45;;;;;;;;;;5037582;28;20386;-77
2023/01/29 09:18:05;;;;;;;24.73;14.95;;;;;;;;;;5029753;28;20515;-76
2023/01/29 09:20:30;;;;;;;28.10;15.15;;;;;;;;;;5046660;28;20480;-78
2023/01/29 09:22:57;;;;;;;25.85;14.48;;;;;;;;;;5030905;28;20044;-75
2023/01/29 09:25:23;;;;;;;25.27;15.13;;;;;;;;;;5029988;28;20025;-76
2023/01/29 09:27:49;;;;;;;28.13;16.42;;;;;;;;;;5029504;28;20029;-76
2023/01/29 09:30:14;;;;;;;28.15;15.48;;;;;;;;;;5030857;28;20066;-76
2023/01/29 09:32:40;;;;;;;26.63;14.68;;;;;;;;;;5046340;28;20044;-75
2023/01/29 09:35:05;;;;;;;24.45;14.27;;;;;;;;;;5031001;28;20037;-74
2023/01/29 09:37:31;;;;;;;28.15;15.15;;;;;;;;;;5030422;28;20440;-74
2023/01/29 09:39:56;;;;;;;26.80;15.65;;;;;;;;;;5031013;28;20032;-75
2023/01/29 09:42:31;;;;;;;31.33;17.15;;;;;;;;;;5030936;28;20029;-76
2023/01/29 09:44:59;;;;;;;30.55;15.27;;;;;;;;;;5030487;28;20506;-76
2023/01/29 09:47:25;;;;;;;27.15;15.70;;;;;;;;;;5028443;28;20392;-74
2023/01/29 09:49:55;;;;;;;29.58;16.27;;;;;;;;;;5028199;28;20428;-75
2023/01/29 09:52:21;;;;;;;27.05;15.63;;;;;;;;;;5030220;28;20029;-75
2023/01/29 09:54:51;;;;;;;31.08;16.17;;;;;;;;;;5043523;28;20036;-74
2023/01/29 09:57:18;;;;;;;26.63;15.50;;;;;;;;;;5029787;28;20263;-75
2023/01/29 09:59:43;;;;;;;28.90;14.75;;;;;;;;;;5028401;28;20026;-75
2023/01/29 10:02:10;;;;;;;27.85;15.55;;;;;;;;;;5023106;28;20014;-76
2023/01/29 10:04:35;;;;;;;26.30;15.02;;;;;;;;;;5028128;28;20380;-74
2023/01/29 10:07:19;;;;;;;27.60;16.27;;;;;;;;;;5029861;28;20037;-75
2023/01/29 10:10:19;;;;;;;28.23;15.10;;;;;;;;;;5029623;28;20523;-76
2023/01/29 10:12:44;;;;;;;25.52;14.45;;;;;;;;;;5034351;28;20036;-75
2023/01/29 10:15:26;;;;;;;27.80;16.48;;;;;;;;;;5034211;28;20033;-75
2023/01/29 10:18:01;;;;;;;25.02;13.00;;;;;;;;;;5033276;28;20087;-74
2023/01/29 10:20:45;;;;;;;25.80;13.13;;;;;;;;;;5016124;28;20083;-74
2023/01/29 10:23:25;;;;;;;24.58;13.15;;;;;;;;;;5020539;28;20033;-74
2023/01/29 10:25:51;;;;;;;25.08;12.48;;;;;;;;;;5027020;28;20045;-74
2023/01/29 10:28:18;;;;;;;22.27;11.40;;;;;;;;;;5032158;28;20034;-75
2023/01/29 10:30:48;;;;;;;22.55;11.80;;;;;;;;;;5032973;28;20025;-75
2023/01/29 10:33:17;;;;;;;23.02;12.93;;;;;;;;;;5033408;28;20025;-74
2023/01/29 10:35:44;;;;;;;23.73;12.93;;;;;;;;;;5029909;28;20499;-76
2023/01/29 10:38:28;;;;;;;23.85;13.13;;;;;;;;;;5033841;28;20033;-73
2023/01/29 10:41:00;;;;;;;22.33;12.60;;;;;;;;;;5034102;28;20036;-75
2023/01/29 10:43:29;;;;;;;25.10;13.32;;;;;;;;;;5034116;28;20029;-75
2023/01/29 10:46:08;;;;;;;25.48;13.50;;;;;;;;;;5033866;28;20503;-74
2023/01/29 10:48:39;;;;;;;22.83;12.35;;;;;;;;;;5032591;28;20393;-74
2023/01/29 10:51:21;;;;;;;23.42;11.95;;;;;;;;;;5032657;28;20039;-75
2023/01/29 10:54:13;;;;;;;24.42;12.18;;;;;;;;;;5033736;28;20111;-75
2023/01/29 10:56:57;;;;;;;25.80;13.95;;;;;;;;;;5023576;28;20045;-75
2023/01/29 10:59:32;;;;;;;26.27;13.90;;;;;;;;;;5033544;28;20083;-74
2023/01/29 11:01:58;;;;;;;24.50;14.23;;;;;;;;;;5032974;28;20061;-75
2023/01/29 11:04:24;;;;;;;26.90;13.93;;;;;;;;;;5021050;28;20441;-74
2023/01/29 11:06:49;;;;;;;28.17;14.50;;;;;;;;;;5032072;28;20036;-75
2023/01/29 11:09:28;;;;;;;24.30;12.38;;;;;;;;;;5018791;28;20025;-75
2023/01/29 11:11:53;;;;;;;25.13;12.57;;;;;;;;;;5032224;28;20063;-75
2023/01/29 11:14:23;;;;;;;24.73;12.35;;;;;;;;;;5031891;28;20029;-74
2023/01/29 11:16:49;;;;;;;24.80;12.50;;;;;;;;;;5032998;28;20136;-74
2023/01/29 11:19:14;;;;;;;25.00;13.05;;;;;;;;;;5032666;28;20116;-75
2023/01/29 11:21:50;;;;;;;24.88;12.07;;;;;;;;;;5014666;28;20033;-75
2023/01/29 11:24:41;;;;;;;26.17;12.77;;;;;;;;;;5032272;28;20519;-75
2023/01/29 11:27:14;;;;;;;22.67;12.02;;;;;;;;;;5034954;28;20041;-75
2023/01/29 11:29:43;;;;;;;22.13;12.15;;;;;;;;;;5049570;28;20091;-75
2023/01/29 11:32:23;;;;;;;22.20;11.30;;;;;;;;;;5032126;28;20067;-75
2023/01/29 11:35:08;;;;;;;22.70;11.75;;;;;;;;;;5037253;28;20029;-76
2023/01/29 11:37:38;;;;;;;22.58;11.20;;;;;;;;;;5022608;28;20045;-75
2023/01/29 11:40:19;;;;;;;23.75;12.30;;;;;;;;;;5042298;28;20032;-75
2023/01/29 11:42:45;;;;;;;23.88;12.55;;;;;;;;;;5033080;28;20030;-75
2023/01/29 11:45:33;;;;;;;23.30;11.63;;;;;;;;;;5030958;28;20044;-75
2023/01/29 11:47:59;;;;;;;21.42;11.48;;;;;;;;;;5028840;28;20730;-75
2023/01/29 11:50:28;;;;;;;21.52;11.27;;;;;;;;;;5031176;28;20036;-75
2023/01/29 11:52:53;;;;;;;23.33;11.07;;;;;;;;;;5012106;28;20404;-75
2023/01/29 11:55:22;;;;;;;22.10;12.23;;;;;;;;;;5032583;28;20032;-75
2023/01/29 11:58:02;;;;;;;20.88;10.88;;;;;;;;;;5027271;28;20037;-75
2023/01/29 12:00:28;;;;;;;24.15;11.18;;;;;;;;;;5024601;28;20025;-74
2023/01/29 12:03:05;;;;;;;22.10;11.60;;;;;;;;;;5030831;28;20022;-75
2023/01/29 12:05:30;;;;;;;;;;;;;;;;;;5031155;28;20051;-75
2023/01/29 12:07:56;;;;;;;22.45;11.60;;;;;;;;;;5031432;28;19909;-75
2023/01/29 12:10:35;;;;;;;26.77;12.55;;;;;;;;;;5030651;28;20043;-74
2023/01/29 12:13:10;;;;;;;23.70;11.98;;;;;;;;;;5031567;28;20045;-74
2023/01/29 12:15:39;;;;;;;27.23;12.75;;;;;;;;;;5031592;28;20092;-74
2023/01/29 12:18:04;;;;;;;23.40;11.55;;;;;;;;;;5025206;28;20040;-75
2023/01/29 12:20:56;;;;;;;25.40;12.25;;;;;;;;;;5022654;28;20029;-74
2023/01/29 12:23:21;;;;;;;22.30;11.20;;;;;;;;;;5022158;28;20052;-75
2023/01/29 12:26:06;;;;;;;27.55;12.52;;;;;;;;;;5035720;28;20017;-76
2023/01/29 12:28:50;;;;;;;21.88;11.52;;;;;;;;;;5021179;28;20412;-74
2023/01/29 12:31:35;;;;;;;26.42;12.63;;;;;;;;;;5015895;28;20029;-75
2023/01/29 12:34:07;;;;;;;24.05;11.43;;;;;;;;;;5028453;28;20077;-75
2023/01/29 12:36:52;;;;;;;23.88;11.18;;;;;;;;;;5021801;28;20033;-75
2023/01/29 12:39:17;;;;;;;22.45;11.57;;;;;;;;;;5012179;28;20025;-74
2023/01/29 12:41:44;;;;;;;25.83;12.88;;;;;;;;;;5040748;28;20040;-75
2023/01/29 12:44:18;;;;;;;18.88;9.98;;;;;;;;;;5026456;28;20532;-75
2023/01/29 12:46:45;;;;;;;26.25;11.73;;;;;;;;;;5021933;28;20037;-75
